createdAt,value
2019-04-26T00:00:39.589Z,2.10
2019-04-26T00:01:44.815Z,1.40
2019-04-26T00:02:50.062Z,1.30
2019-04-26T00:03:53.758Z,1.65
2019-04-26T00:04:58.679Z,1.55
2019-04-26T00:06:02.190Z,1.45
2019-04-26T00:07:05.738Z,1.75
2019-04-26T00:08:10.386Z,1.10
2019-04-26T00:09:24.864Z,1.65
2019-04-26T00:10:46.001Z,1.37
2019-04-26T00:11:54.384Z,1.17
2019-04-26T00:13:08.287Z,4.10
2019-04-26T00:14:16.338Z,2.67
2019-04-26T00:15:37.640Z,4.70
2019-04-26T00:16:43.085Z,2.00
2019-04-26T00:17:48.241Z,1.90
2019-04-26T00:18:51.697Z,1.75
2019-04-26T00:19:55.203Z,1.52
2019-04-26T00:20:59.006Z,1.70
2019-04-26T00:22:02.516Z,1.85
2019-04-26T00:23:06.365Z,1.30
2019-04-26T00:24:11.636Z,1.65
2019-04-26T00:25:15.314Z,1.22
2019-04-26T00:26:19.690Z,1.77
2019-04-26T00:27:23.286Z,1.92
2019-04-26T00:28:26.725Z,1.45
2019-04-26T00:29:30.173Z,1.35
2019-04-26T00:30:33.686Z,1.12
2019-04-26T00:31:37.121Z,1.50
2019-04-26T00:32:40.799Z,1.55
2019-04-26T00:33:44.310Z,1.50
2019-04-26T00:34:47.919Z,1.27
2019-04-26T00:35:51.499Z,1.50
2019-04-26T00:36:54.935Z,1.65
2019-04-26T00:37:58.475Z,2.08
2019-04-26T00:39:01.959Z,1.65
2019-04-26T00:40:05.950Z,1.37
2019-04-26T00:41:09.868Z,1.50
2019-04-26T00:42:14.604Z,1.62
2019-04-26T00:43:18.549Z,1.60
2019-04-26T00:44:22.861Z,1.47
2019-04-26T00:45:29.409Z,2.05
2019-04-26T00:46:35.630Z,1.95
2019-04-26T00:47:39.430Z,2.10
2019-04-26T00:48:44.578Z,1.92
2019-04-26T00:49:48.276Z,2.00
2019-04-26T00:50:53.569Z,2.58
2019-04-26T00:51:57.541Z,1.52
2019-04-26T00:53:02.224Z,1.70
2019-04-26T00:54:06.599Z,1.50
2019-04-26T00:55:10.292Z,1.40
2019-04-26T00:56:14.651Z,1.77
2019-04-26T00:57:18.732Z,1.72
2019-04-26T00:58:24.447Z,2.05
2019-04-26T00:59:28.267Z,2.08
2019-04-26T01:00:31.858Z,1.80
2019-04-26T01:01:37.098Z,1.57
2019-04-26T01:02:44.674Z,1.55
2019-04-26T01:03:48.217Z,2.10
2019-04-26T01:04:51.652Z,2.02
2019-04-26T01:06:00.155Z,2.05
2019-04-26T01:07:01.449Z,1.95
2019-04-26T01:08:05.006Z,1.50
2019-04-26T01:09:08.531Z,1.40
2019-04-26T01:10:13.595Z,1.50
2019-04-26T01:11:17.663Z,1.90
2019-04-26T01:12:21.864Z,2.12
2019-04-26T01:13:26.153Z,1.80
2019-04-26T01:14:29.648Z,1.60
2019-04-26T01:15:33.172Z,2.30
2019-04-26T01:16:36.617Z,2.70
2019-04-26T01:17:40.200Z,2.45
2019-04-26T01:18:46.975Z,1.80
2019-04-26T01:19:52.296Z,2.20
2019-04-26T01:20:58.799Z,1.70
2019-04-26T01:22:05.293Z,1.15
2019-04-26T01:23:11.850Z,1.30
2019-04-26T01:24:18.306Z,1.55
2019-04-26T01:25:36.202Z,1.80
2019-04-26T01:26:40.497Z,1.37
2019-04-26T01:27:44.075Z,1.65
2019-04-26T01:28:53.418Z,2.00
2019-04-26T01:29:59.893Z,1.80
2019-04-26T01:31:05.138Z,1.60
2019-04-26T01:32:15.656Z,1.60
2019-04-26T01:33:20.118Z,2.00
2019-04-26T01:34:24.215Z,1.50
2019-04-26T01:35:28.396Z,1.82
2019-04-26T01:36:33.415Z,1.87
2019-04-26T01:37:39.993Z,1.50
2019-04-26T01:38:45.724Z,1.45
2019-04-26T01:39:53.872Z,1.62
2019-04-26T01:40:59.085Z,1.62
2019-04-26T01:42:22.231Z,1.50
2019-04-26T01:43:33.453Z,1.30
2019-04-26T01:44:50.166Z,1.47
2019-04-26T01:46:10.689Z,1.65
2019-04-26T01:47:14.449Z,1.55
2019-04-26T01:48:40.482Z,1.15
2019-04-26T01:49:44.157Z,1.80
2019-04-26T01:50:47.837Z,1.62
2019-04-26T01:52:00.101Z,1.52
2019-04-26T01:53:05.080Z,1.17
2019-04-26T01:54:11.192Z,1.22
2019-04-26T01:55:15.770Z,1.10
2019-04-26T01:56:23.437Z,1.40
2019-04-26T01:57:30.025Z,1.45
2019-04-26T01:58:33.703Z,1.70
2019-04-26T01:59:42.032Z,1.62
2019-04-26T02:00:53.296Z,1.52
2019-04-26T02:02:01.043Z,1.62
2019-04-26T02:03:06.482Z,1.52
2019-04-26T02:04:10.084Z,1.35
2019-04-26T02:05:25.808Z,1.72
2019-04-26T02:06:33.559Z,1.77
2019-04-26T02:07:41.436Z,1.40
2019-04-26T02:08:45.052Z,1.25
2019-04-26T02:09:48.554Z,1.32
2019-04-26T02:10:52.071Z,1.10
2019-04-26T02:11:55.576Z,1.22
2019-04-26T02:12:59.782Z,1.80
2019-04-26T02:14:03.378Z,1.37
2019-04-26T02:15:07.960Z,2.00
2019-04-26T02:16:11.470Z,1.50
2019-04-26T02:17:15.058Z,1.20
2019-04-26T02:18:18.658Z,1.50
2019-04-26T02:19:23.306Z,1.40
2019-04-26T02:20:54.470Z,1.12
2019-04-26T02:22:15.623Z,1.82
2019-04-26T02:23:36.954Z,1.52
2019-04-26T02:24:44.821Z,1.40
2019-04-26T02:25:48.499Z,1.15
2019-04-26T02:26:52.573Z,1.20
2019-04-26T02:27:56.083Z,1.72
2019-04-26T02:28:59.682Z,1.55
2019-04-26T02:30:05.213Z,1.35
2019-04-26T02:31:08.782Z,1.32
2019-04-26T02:32:12.356Z,1.80
2019-04-26T02:33:16.035Z,1.65
2019-04-26T02:34:19.633Z,1.77
2019-04-26T02:35:23.316Z,1.40
2019-04-26T02:36:46.413Z,1.47
2019-04-26T02:37:34.603Z,1.57
2019-04-26T02:38:38.417Z,1.20
2019-04-26T02:39:42.259Z,1.87
2019-04-26T02:40:45.758Z,1.65
2019-04-26T02:41:51.928Z,1.60
2019-04-26T02:42:55.430Z,1.65
2019-04-26T02:44:01.948Z,1.50
2019-04-26T02:45:15.545Z,1.85
2019-04-26T02:46:42.044Z,1.70
2019-04-26T02:48:05.050Z,1.70
2019-04-26T02:49:13.417Z,1.80
2019-04-26T02:50:28.354Z,1.37
2019-04-26T02:51:43.332Z,1.62
2019-04-26T02:53:05.817Z,1.75
2019-04-26T02:54:22.645Z,2.02
2019-04-26T02:55:54.807Z,1.80
2019-04-26T02:57:00.274Z,1.50
2019-04-26T02:58:04.177Z,1.65
2019-04-26T02:59:13.438Z,2.08
2019-04-26T03:00:19.795Z,2.05
2019-04-26T03:01:23.300Z,1.77
2019-04-26T03:02:30.191Z,2.50
2019-04-26T03:03:34.382Z,2.02
2019-04-26T03:04:41.338Z,1.90
2019-04-26T03:05:46.008Z,1.75
2019-04-26T03:07:03.135Z,1.57
2019-04-26T03:07:58.207Z,1.80
2019-04-26T03:09:06.530Z,1.90
2019-04-26T03:10:10.419Z,1.90
2019-04-26T03:11:17.684Z,1.60
2019-04-26T03:12:24.272Z,1.95
2019-04-26T03:13:36.323Z,1.60
2019-04-26T03:14:45.182Z,1.50
2019-04-26T03:16:01.781Z,1.90
2019-04-26T03:17:07.193Z,1.80
2019-04-26T03:18:35.178Z,1.90
2019-04-26T03:19:57.610Z,2.55
2019-04-26T03:21:10.144Z,1.62
2019-04-26T03:22:28.703Z,1.65
2019-04-26T03:23:57.006Z,1.80
2019-04-26T03:25:10.810Z,1.90
2019-04-26T03:26:25.980Z,2.00
2019-04-26T03:27:33.392Z,1.70
2019-04-26T03:28:43.446Z,2.58
2019-04-26T03:30:17.415Z,2.40
2019-04-26T03:31:17.964Z,1.92
2019-04-26T03:32:33.829Z,1.85
2019-04-26T03:33:54.619Z,2.02
2019-04-26T03:35:17.708Z,1.70
2019-04-26T03:36:49.536Z,2.30
2019-04-26T03:38:03.113Z,1.82
2019-04-26T03:39:10.770Z,2.20
2019-04-26T03:40:48.611Z,1.90
2019-04-26T03:42:05.545Z,2.30
2019-04-26T03:43:31.203Z,2.10
2019-04-26T03:44:44.232Z,1.80
2019-04-26T03:45:53.580Z,1.82
2019-04-26T03:47:00.065Z,1.90
2019-04-26T03:48:15.553Z,1.95
2019-04-26T03:49:44.173Z,2.55
2019-04-26T03:50:56.957Z,1.90
2019-04-26T03:52:35.288Z,1.90
2019-04-26T03:53:42.425Z,2.30
2019-04-26T03:54:49.563Z,2.15
2019-04-26T03:56:08.194Z,1.70
2019-04-26T03:57:28.069Z,2.12
2019-04-26T03:58:55.165Z,2.22
2019-04-26T04:00:23.687Z,2.62
2019-04-26T04:01:30.819Z,2.47
2019-04-26T04:02:53.641Z,2.45
2019-04-26T04:04:16.733Z,1.85
2019-04-26T04:05:27.685Z,1.70
2019-04-26T04:06:52.393Z,1.70
2019-04-26T04:07:47.207Z,2.55
2019-04-26T04:08:48.624Z,2.37
2019-04-26T04:09:55.101Z,1.80
2019-04-26T04:11:01.593Z,2.00
2019-04-26T04:12:13.988Z,2.67
2019-04-26T04:13:43.270Z,2.10
2019-04-26T04:15:05.543Z,1.82
2019-04-26T04:16:14.969Z,2.20
2019-04-26T04:17:29.130Z,1.75
2019-04-26T04:18:40.169Z,2.47
2019-04-26T04:20:12.259Z,2.12
2019-04-26T04:21:45.108Z,1.62
2019-04-26T04:22:57.630Z,2.10
2019-04-26T04:24:12.646Z,2.05
2019-04-26T04:25:30.857Z,3.05
2019-04-26T04:26:55.120Z,1.98
2019-04-26T04:28:07.343Z,2.20
2019-04-26T04:29:19.440Z,2.12
2019-04-26T04:30:31.649Z,2.00
2019-04-26T04:31:45.702Z,2.20
2019-04-26T04:33:06.898Z,1.65
2019-04-26T04:34:45.286Z,1.90
2019-04-26T04:35:52.936Z,1.95
2019-04-26T04:36:59.528Z,1.85
2019-04-26T04:38:09.925Z,1.80
2019-04-26T04:39:19.463Z,1.90
2019-04-26T04:40:49.995Z,1.90
2019-04-26T04:41:58.091Z,2.05
2019-04-26T04:43:20.972Z,1.92
2019-04-26T04:45:10.935Z,2.22
2019-04-26T04:46:30.841Z,2.10
2019-04-26T04:47:51.257Z,2.05
2019-04-26T04:49:15.363Z,1.90
2019-04-26T04:50:23.470Z,1.90
2019-04-26T04:51:57.017Z,2.52
2019-04-26T04:53:15.065Z,1.70
2019-04-26T04:54:21.624Z,2.08
2019-04-26T04:55:39.209Z,2.05
2019-04-26T04:56:54.487Z,1.77
2019-04-26T04:58:06.983Z,2.15
2019-04-26T04:59:16.185Z,2.25
2019-04-26T05:00:29.670Z,2.20
2019-04-26T05:01:52.641Z,2.22
2019-04-26T05:03:15.014Z,2.00
2019-04-26T05:04:36.610Z,2.05
2019-04-26T05:05:44.975Z,2.25
2019-04-26T05:07:04.865Z,2.15
2019-04-26T05:08:39.875Z,2.08
2019-04-26T05:09:49.496Z,1.90
2019-04-26T05:11:07.280Z,2.37
2019-04-26T05:12:18.910Z,2.05
2019-04-26T05:13:25.400Z,2.27
2019-04-26T05:14:31.947Z,2.10
2019-04-26T05:16:11.340Z,2.50
2019-04-26T05:17:46.612Z,2.05
2019-04-26T05:19:29.129Z,2.17
2019-04-26T05:20:38.356Z,2.67
2019-04-26T05:21:59.672Z,2.35
2019-04-26T05:23:06.160Z,2.15
2019-04-26T05:24:17.809Z,2.17
2019-04-26T05:25:49.662Z,2.92
2019-04-26T05:27:25.737Z,2.87
2019-04-26T05:29:01.912Z,2.27
2019-04-26T05:30:18.079Z,2.10
2019-04-26T05:31:29.051Z,2.05
2019-04-26T05:32:41.484Z,2.25
2019-04-26T05:33:48.842Z,1.80
2019-04-26T05:34:57.001Z,2.20
2019-04-26T05:36:18.980Z,2.15
2019-04-26T05:37:28.410Z,1.70
2019-04-26T05:38:40.579Z,2.58
2019-04-26T05:40:07.879Z,1.95
2019-04-26T05:41:36.995Z,1.95
2019-04-26T05:43:16.385Z,2.35
2019-04-26T05:45:07.432Z,1.92
2019-04-26T05:46:26.975Z,2.15
2019-04-26T05:48:03.129Z,2.35
2019-04-26T05:49:32.118Z,2.25
2019-04-26T05:51:11.393Z,2.00
2019-04-26T05:52:35.762Z,3.80
2019-04-26T05:54:05.852Z,3.00
2019-04-26T05:55:25.144Z,2.10
2019-04-26T05:56:51.550Z,2.12
2019-04-26T05:58:08.630Z,2.20
2019-04-26T05:59:17.539Z,2.58
2019-04-26T06:00:37.404Z,1.95
2019-04-26T06:01:56.852Z,2.10
2019-04-26T06:03:39.290Z,2.20
2019-04-26T06:05:20.062Z,2.15
2019-04-26T06:06:28.442Z,2.00
2019-04-26T06:08:30.730Z,1.95
2019-04-26T06:09:42.455Z,2.10
2019-04-26T06:10:49.469Z,1.92
2019-04-26T06:12:34.697Z,2.60
2019-04-26T06:13:54.154Z,2.40
2019-04-26T06:15:16.916Z,2.12
2019-04-26T06:16:50.535Z,2.40
2019-04-26T06:18:02.532Z,2.00
2019-04-26T06:19:13.545Z,2.40
2019-04-26T06:20:37.855Z,2.08
2019-04-26T06:21:44.342Z,2.10
2019-04-26T06:23:07.062Z,2.58
2019-04-26T06:24:28.173Z,2.00
2019-04-26T06:25:44.983Z,2.47
2019-04-26T06:27:13.717Z,2.08
2019-04-26T06:28:29.021Z,3.95
2019-04-26T06:30:04.152Z,5.30
2019-04-26T06:31:22.385Z,2.00
2019-04-26T06:32:55.994Z,2.20
2019-04-26T06:33:55.154Z,2.05
2019-04-26T06:35:20.174Z,2.47
2019-04-26T06:36:28.553Z,1.90
2019-04-26T06:38:03.990Z,2.15
2019-04-26T06:39:21.542Z,1.87
2019-04-26T06:40:42.097Z,1.82
2019-04-26T06:42:07.273Z,2.20
2019-04-26T06:43:15.395Z,2.08
2019-04-26T06:44:23.547Z,2.20
2019-04-26T06:45:42.833Z,2.30
2019-04-26T06:46:59.825Z,2.27
2019-04-26T06:48:10.903Z,2.33
2019-04-26T06:49:21.743Z,2.30
2019-04-26T06:50:29.925Z,2.42
2019-04-26T06:51:47.782Z,2.33
2019-04-26T06:52:59.726Z,2.10
2019-04-26T06:54:09.700Z,2.08
2019-04-26T06:55:20.651Z,2.22
2019-04-26T06:56:37.640Z,2.22
2019-04-26T06:57:59.404Z,2.30
2019-04-26T06:59:20.464Z,2.00
2019-04-26T07:00:28.741Z,2.30
2019-04-26T07:01:38.181Z,3.67
2019-04-26T07:03:17.578Z,2.20
2019-04-26T07:04:42.986Z,2.20
2019-04-26T07:05:55.430Z,2.25
2019-04-26T07:07:19.581Z,1.98
2019-04-26T07:08:57.549Z,1.98
2019-04-26T07:10:04.610Z,2.30
2019-04-26T07:11:51.547Z,2.35
2019-04-26T07:13:35.473Z,2.60
2019-04-26T07:15:07.961Z,2.40
2019-04-26T07:16:42.921Z,2.05
2019-04-26T07:18:11.452Z,2.30
2019-04-26T07:19:17.939Z,2.12
2019-04-26T07:20:34.315Z,3.05
2019-04-26T07:21:51.016Z,2.72
2019-04-26T07:23:24.625Z,2.67
2019-04-26T07:24:56.537Z,2.33
2019-04-26T07:26:18.959Z,2.50
2019-04-26T07:27:34.203Z,4.70
2019-04-26T07:28:52.460Z,3.40
2019-04-26T07:30:10.376Z,2.27
2019-04-26T07:31:25.355Z,3.20
2019-04-26T07:32:52.670Z,2.00
2019-04-26T07:34:05.167Z,2.10
2019-04-26T07:35:25.984Z,2.10
2019-04-26T07:36:51.805Z,2.37
2019-04-26T07:38:19.093Z,3.00
2019-04-26T07:39:30.147Z,2.67
2019-04-26T07:40:49.847Z,2.72
2019-04-26T07:42:19.618Z,2.70
2019-04-26T07:44:01.009Z,2.25
2019-04-26T07:45:18.642Z,2.35
2019-04-26T07:46:57.831Z,2.55
2019-04-26T07:48:26.452Z,2.40
2019-04-26T07:50:05.997Z,2.52
2019-04-26T07:51:28.425Z,2.00
2019-04-26T07:53:07.690Z,2.40
2019-04-26T07:54:42.497Z,1.92
2019-04-26T07:56:07.183Z,3.12
2019-04-26T07:57:42.512Z,2.33
2019-04-26T07:59:08.796Z,2.40
2019-04-26T08:00:44.361Z,2.62
2019-04-26T08:01:58.791Z,2.20
2019-04-26T08:03:15.628Z,2.65
2019-04-26T08:04:23.775Z,5.53
2019-04-26T08:05:43.639Z,3.35
2019-04-26T08:06:55.667Z,2.40
2019-04-26T08:08:01.988Z,2.37
2019-04-26T08:09:25.051Z,2.30
2019-04-26T08:10:22.286Z,2.10
2019-04-26T08:11:37.387Z,2.33
2019-04-26T08:12:44.194Z,2.00
2019-04-26T08:14:08.589Z,2.83
2019-04-26T08:15:16.797Z,2.37
2019-04-26T08:16:29.823Z,2.37
2019-04-26T08:17:40.640Z,1.92
2019-04-26T08:18:51.726Z,1.90
2019-04-26T08:19:58.885Z,2.37
2019-04-26T08:21:12.433Z,2.12
2019-04-26T08:22:20.440Z,2.20
2019-04-26T08:23:39.695Z,2.17
2019-04-26T08:24:37.205Z,2.08
2019-04-26T08:25:42.581Z,1.87
2019-04-26T08:26:49.088Z,2.42
2019-04-26T08:27:55.585Z,2.60
2019-04-26T08:29:02.134Z,2.70
2019-04-26T08:30:19.047Z,2.42
2019-04-26T08:31:25.635Z,2.83
2019-04-26T08:32:33.372Z,2.92
2019-04-26T08:33:48.442Z,2.10
2019-04-26T08:34:49.715Z,2.30
2019-04-26T08:35:56.337Z,2.52
2019-04-26T08:37:03.985Z,2.17
2019-04-26T08:38:18.087Z,1.95
2019-04-26T08:39:32.349Z,2.15
2019-04-26T08:40:33.308Z,1.82
2019-04-26T08:41:39.139Z,2.05
2019-04-26T08:42:57.285Z,2.08
2019-04-26T08:44:08.594Z,2.05
2019-04-26T08:45:22.471Z,1.98
2019-04-26T08:46:36.253Z,1.52
2019-04-26T08:47:51.099Z,1.50
2019-04-26T08:49:13.727Z,1.55
2019-04-26T08:50:19.640Z,1.50
2019-04-26T08:51:24.891Z,1.60
2019-04-26T08:52:31.574Z,1.75
2019-04-26T08:53:38.045Z,1.80
2019-04-26T08:54:45.449Z,1.55
2019-04-26T08:55:51.572Z,1.85
2019-04-26T08:57:01.084Z,2.75
2019-04-26T08:58:10.481Z,2.50
2019-04-26T08:59:25.835Z,2.65
2019-04-26T09:00:42.852Z,2.30
2019-04-26T09:01:53.567Z,1.40
2019-04-26T09:03:11.577Z,1.52
2019-04-26T09:04:20.426Z,1.42
2019-04-26T09:05:45.650Z,2.08
2019-04-26T09:07:02.275Z,1.70
2019-04-26T09:08:08.614Z,1.85
2019-04-26T09:09:19.776Z,1.92
2019-04-26T09:10:25.954Z,1.40
2019-04-26T09:11:33.834Z,1.80
2019-04-26T09:12:38.167Z,1.45
2019-04-26T09:13:44.746Z,1.60
2019-04-26T09:14:51.221Z,1.80
2019-04-26T09:16:09.461Z,2.00
2019-04-26T09:17:13.127Z,1.82
2019-04-26T09:18:16.593Z,1.75
2019-04-26T09:19:20.161Z,1.45
2019-04-26T09:20:29.714Z,1.95
2019-04-26T09:21:30.827Z,1.67
2019-04-26T09:22:50.769Z,1.57
2019-04-26T09:24:11.790Z,2.85
2019-04-26T09:25:16.999Z,1.72
2019-04-26T09:26:28.274Z,1.85
2019-04-26T09:27:36.164Z,1.92
2019-04-26T09:28:52.877Z,2.05
2019-04-26T09:30:05.007Z,1.98
2019-04-26T09:31:10.030Z,1.47
2019-04-26T09:32:18.040Z,1.95
2019-04-26T09:33:26.157Z,1.75
2019-04-26T09:34:33.944Z,1.70
2019-04-26T09:35:37.439Z,1.77
2019-04-26T09:36:41.005Z,1.80
2019-04-26T09:37:44.510Z,2.15
2019-04-26T09:38:48.035Z,2.00
2019-04-26T09:39:51.483Z,1.90
2019-04-26T09:40:56.256Z,2.30
2019-04-26T09:42:05.960Z,2.60
2019-04-26T09:43:14.960Z,2.20
2019-04-26T09:44:27.354Z,2.12
2019-04-26T09:45:50.325Z,1.90
2019-04-26T09:47:07.547Z,2.98
2019-04-26T09:48:15.418Z,2.27
2019-04-26T09:49:20.640Z,2.70
2019-04-26T09:50:40.505Z,2.50
2019-04-26T09:51:44.008Z,2.70
2019-04-26T09:52:52.126Z,2.10
2019-04-26T09:53:55.554Z,2.35
2019-04-26T09:54:59.005Z,2.60
2019-04-26T09:56:02.611Z,2.67
2019-04-26T09:57:06.113Z,2.60
2019-04-26T09:58:09.773Z,2.55
2019-04-26T09:59:13.284Z,3.37
2019-04-26T10:00:19.206Z,2.70
2019-04-26T10:01:24.059Z,3.20
2019-04-26T10:02:29.507Z,3.00
2019-04-26T10:03:34.409Z,2.37
2019-04-26T10:04:37.951Z,8.03
2019-04-26T10:05:41.534Z,2.87
2019-04-26T10:06:44.959Z,2.70
2019-04-26T10:07:48.461Z,8.28
2019-04-26T10:08:52.516Z,4.65
2019-04-26T10:10:00.783Z,4.35
2019-04-26T10:11:01.292Z,2.72
2019-04-26T10:12:12.444Z,3.00
2019-04-26T10:13:33.639Z,3.20
2019-04-26T10:14:41.707Z,2.90
2019-04-26T10:15:52.360Z,2.83
2019-04-26T10:16:59.848Z,2.90
2019-04-26T10:18:04.224Z,2.95
2019-04-26T10:19:09.395Z,3.33
2019-04-26T10:20:13.371Z,4.47
2019-04-26T10:21:16.879Z,2.77
2019-04-26T10:22:20.682Z,3.10
2019-04-26T10:23:24.118Z,2.92
2019-04-26T10:24:27.556Z,2.90
2019-04-26T10:25:31.012Z,2.70
2019-04-26T10:26:34.442Z,2.35
2019-04-26T10:27:40.761Z,2.77
2019-04-26T10:28:43.037Z,2.40
2019-04-26T10:29:46.465Z,1.98
2019-04-26T10:30:50.287Z,2.62
2019-04-26T10:31:53.816Z,2.65
2019-04-26T10:32:58.400Z,2.10
2019-04-26T10:34:02.527Z,2.22
2019-04-26T10:35:06.803Z,2.40
2019-04-26T10:36:10.261Z,2.42
2019-04-26T10:37:13.690Z,2.15
2019-04-26T10:38:19.263Z,2.47
2019-04-26T10:39:23.426Z,2.02
2019-04-26T10:40:35.232Z,2.72
2019-04-26T10:41:32.211Z,2.60
2019-04-26T10:42:35.709Z,2.42
2019-04-26T10:43:39.377Z,2.67
2019-04-26T10:44:42.893Z,2.52
2019-04-26T10:45:53.493Z,2.37
2019-04-26T10:46:55.595Z,2.22
2019-04-26T10:47:56.752Z,3.12
2019-04-26T10:49:08.864Z,2.45
2019-04-26T10:50:07.804Z,2.45
2019-04-26T10:51:13.011Z,2.22
2019-04-26T10:52:22.215Z,2.37
2019-04-26T10:53:45.186Z,2.25
2019-04-26T10:54:55.900Z,1.92
2019-04-26T10:56:00.993Z,2.10
2019-04-26T10:57:12.110Z,1.70
2019-04-26T10:58:27.209Z,1.90
2019-04-26T10:59:47.025Z,1.32
2019-04-26T11:01:04.330Z,1.82
2019-04-26T11:02:11.298Z,1.45
2019-04-26T11:03:14.991Z,1.60
2019-04-26T11:04:18.581Z,1.55
2019-04-26T11:05:22.010Z,1.40
2019-04-26T11:06:27.825Z,1.47
2019-04-26T11:07:31.091Z,1.10
2019-04-26T11:08:34.592Z,1.70
2019-04-26T11:09:38.114Z,1.30
2019-04-26T11:10:48.495Z,1.20
2019-04-26T11:11:46.935Z,1.10
2019-04-26T11:12:50.430Z,1.50
2019-04-26T11:13:53.859Z,1.20
2019-04-26T11:14:58.227Z,1.10
2019-04-26T11:16:02.491Z,1.92
2019-04-26T11:17:11.546Z,1.20
2019-04-26T11:18:12.957Z,1.35
2019-04-26T11:19:16.530Z,1.20
2019-04-26T11:20:20.029Z,1.10
2019-04-26T11:21:23.525Z,1.10
2019-04-26T11:22:29.216Z,1.10
2019-04-26T11:23:32.452Z,0.95
2019-04-26T11:24:35.881Z,1.00
2019-04-26T11:25:39.387Z,1.20
2019-04-26T11:26:42.950Z,0.78
2019-04-26T11:27:48.537Z,0.93
2019-04-26T11:28:55.666Z,0.80
2019-04-26T11:29:59.644Z,0.80
2019-04-26T11:31:02.013Z,0.90
2019-04-26T11:32:05.679Z,0.90
2019-04-26T11:33:11.164Z,1.25
2019-04-26T11:34:14.288Z,1.22
2019-04-26T11:35:17.790Z,1.42
2019-04-26T11:36:21.235Z,1.10
2019-04-26T11:37:24.653Z,1.00
2019-04-26T11:38:31.376Z,1.00
2019-04-26T11:39:36.592Z,0.70
2019-04-26T11:40:38.585Z,1.10
2019-04-26T11:41:42.076Z,0.90
2019-04-26T11:42:45.876Z,1.05
2019-04-26T11:43:52.888Z,0.80
2019-04-26T11:45:05.548Z,0.90
2019-04-26T11:46:04.686Z,1.00
2019-04-26T11:47:07.896Z,0.68
2019-04-26T11:48:11.522Z,1.35
2019-04-26T11:49:15.114Z,0.80
2019-04-26T11:50:18.722Z,0.93
2019-04-26T11:51:23.504Z,0.90
2019-04-26T11:52:27.423Z,0.80
2019-04-26T11:53:33.284Z,0.68
2019-04-26T11:54:36.050Z,0.62
2019-04-26T11:55:39.567Z,0.70
2019-04-26T11:56:42.988Z,0.93
2019-04-26T11:57:47.561Z,1.00
2019-04-26T11:58:52.551Z,0.80
2019-04-26T11:59:56.888Z,0.80
2019-04-26T12:01:01.982Z,0.90
2019-04-26T12:02:05.562Z,0.78
2019-04-26T12:03:08.996Z,0.80
2019-04-26T12:04:14.250Z,0.80
2019-04-26T12:05:31.195Z,1.07
2019-04-26T12:06:42.342Z,1.25
2019-04-26T12:07:49.853Z,0.80
2019-04-26T12:08:54.981Z,0.90
2019-04-26T12:10:05.843Z,0.90
2019-04-26T12:11:17.842Z,0.90
2019-04-26T12:12:14.369Z,0.80
2019-04-26T12:13:21.276Z,0.72
2019-04-26T12:14:23.078Z,1.02
2019-04-26T12:15:30.337Z,1.00
2019-04-26T12:16:31.880Z,0.90
2019-04-26T12:17:36.763Z,0.85
2019-04-26T12:18:43.908Z,0.80
2019-04-26T12:19:48.140Z,0.70
2019-04-26T12:20:50.612Z,0.90
2019-04-26T12:21:54.034Z,0.70
2019-04-26T12:22:57.471Z,0.90
2019-04-26T12:24:00.962Z,1.00
2019-04-26T12:25:07.246Z,0.70
2019-04-26T12:26:10.482Z,0.90
2019-04-26T12:27:14.069Z,0.98
2019-04-26T12:28:17.517Z,0.70
2019-04-26T12:29:21.201Z,0.70
2019-04-26T12:30:26.703Z,0.85
2019-04-26T12:31:29.877Z,0.80
2019-04-26T12:32:33.574Z,0.80
2019-04-26T12:33:39.108Z,0.60
2019-04-26T12:34:42.146Z,0.70
2019-04-26T12:35:45.742Z,0.65
2019-04-26T12:36:49.238Z,0.88
2019-04-26T12:37:54.690Z,0.70
2019-04-26T12:38:58.238Z,0.80
2019-04-26T12:40:07.176Z,0.90
2019-04-26T12:41:11.464Z,0.75
2019-04-26T12:42:14.653Z,0.57
2019-04-26T12:43:20.185Z,0.72
2019-04-26T12:44:24.886Z,0.80
2019-04-26T12:45:32.683Z,0.62
2019-04-26T12:46:37.769Z,0.60
2019-04-26T12:47:48.737Z,0.53
2019-04-26T12:48:52.238Z,0.62
2019-04-26T12:49:58.877Z,0.85
2019-04-26T12:51:01.060Z,0.60
2019-04-26T12:52:04.694Z,0.70
2019-04-26T12:53:08.186Z,0.70
2019-04-26T12:54:11.861Z,0.70
2019-04-26T12:55:18.483Z,0.80
2019-04-26T12:56:20.499Z,0.95
2019-04-26T12:57:23.930Z,0.85
2019-04-26T12:58:27.427Z,0.80
2019-04-26T12:59:43.365Z,0.68
2019-04-26T13:00:37.450Z,0.70
2019-04-26T13:01:42.659Z,0.72
2019-04-26T13:02:50.071Z,0.60
2019-04-26T13:04:04.591Z,0.72
2019-04-26T13:05:08.262Z,0.78
2019-04-26T13:06:11.916Z,0.80
2019-04-26T13:07:24.008Z,0.60
2019-04-26T13:08:24.632Z,1.00
2019-04-26T13:09:28.371Z,0.90
2019-04-26T13:10:36.922Z,0.70
2019-04-26T13:11:48.951Z,0.70
2019-04-26T13:12:51.806Z,0.70
2019-04-26T13:13:56.870Z,0.80
2019-04-26T13:15:21.434Z,0.80
2019-04-26T13:16:29.231Z,0.70
2019-04-26T13:17:37.470Z,0.72
2019-04-26T13:18:44.891Z,0.80
2019-04-26T13:19:49.584Z,0.90
2019-04-26T13:20:51.680Z,0.70
2019-04-26T13:21:55.110Z,0.70
2019-04-26T13:22:58.576Z,0.70
2019-04-26T13:24:04.450Z,0.70
2019-04-26T13:25:15.714Z,0.70
2019-04-26T13:26:12.949Z,0.60
2019-04-26T13:27:16.511Z,0.80
2019-04-26T13:28:21.784Z,0.60
2019-04-26T13:29:27.310Z,0.65
2019-04-26T13:30:33.110Z,0.60
2019-04-26T13:31:35.610Z,0.80
2019-04-26T13:32:39.053Z,0.70
2019-04-26T13:33:42.489Z,0.72
2019-04-26T13:34:45.911Z,0.60
2019-04-26T13:36:02.229Z,0.68
2019-04-26T13:36:54.637Z,0.80
2019-04-26T13:37:58.105Z,0.70
2019-04-26T13:39:01.560Z,0.60
2019-04-26T13:40:07.243Z,0.60
2019-04-26T13:41:10.747Z,0.70
2019-04-26T13:42:17.435Z,0.88
2019-04-26T13:43:22.656Z,0.62
2019-04-26T13:44:42.392Z,1.00
2019-04-26T13:46:03.142Z,0.60
2019-04-26T13:47:22.840Z,0.68
2019-04-26T13:48:43.724Z,0.90
2019-04-26T13:50:05.464Z,0.60
2019-04-26T13:51:10.603Z,0.53
2019-04-26T13:52:14.100Z,0.70
2019-04-26T13:53:17.534Z,0.80
2019-04-26T13:54:22.713Z,0.70
2019-04-26T13:55:29.450Z,0.80
2019-04-26T13:56:32.002Z,0.60
2019-04-26T13:57:40.202Z,0.70
2019-04-26T13:58:41.640Z,0.60
2019-04-26T13:59:45.094Z,0.70
2019-04-26T14:00:48.590Z,0.60
2019-04-26T14:01:52.046Z,0.68
2019-04-26T14:02:55.465Z,0.68
2019-04-26T14:04:02.410Z,0.88
2019-04-26T14:05:04.592Z,0.70
2019-04-26T14:06:08.080Z,0.78
2019-04-26T14:07:11.581Z,0.70
2019-04-26T14:08:17.562Z,0.62
2019-04-26T14:09:20.297Z,0.70
2019-04-26T14:10:23.824Z,0.60
2019-04-26T14:11:29.140Z,1.00
2019-04-26T14:12:32.534Z,0.60
2019-04-26T14:13:36.031Z,0.65
2019-04-26T14:14:39.547Z,0.70
2019-04-26T14:15:44.061Z,0.95
2019-04-26T14:16:48.286Z,0.60
2019-04-26T14:17:51.716Z,0.60
2019-04-26T14:18:55.596Z,0.70
2019-04-26T14:19:59.111Z,1.20
2019-04-26T14:21:02.535Z,1.80
2019-04-26T14:22:07.032Z,1.25
2019-04-26T14:23:27.849Z,0.88
2019-04-26T14:24:33.082Z,1.15
2019-04-26T14:25:46.896Z,1.07
2019-04-26T14:26:54.452Z,1.05
2019-04-26T14:27:58.014Z,0.70
2019-04-26T14:29:01.444Z,1.00
2019-04-26T14:30:08.313Z,1.00
2019-04-26T14:31:12.232Z,0.70
2019-04-26T14:32:17.220Z,0.90
2019-04-26T14:33:20.648Z,1.30
2019-04-26T14:34:24.080Z,2.00
2019-04-26T14:35:27.549Z,1.80
2019-04-26T14:36:31.011Z,1.25
2019-04-26T14:37:34.511Z,0.82
2019-04-26T14:38:40.200Z,0.70
2019-04-26T14:39:50.532Z,0.80
2019-04-26T14:41:02.794Z,0.70
2019-04-26T14:41:57.071Z,1.40
2019-04-26T14:43:06.650Z,0.80
2019-04-26T14:44:14.676Z,0.80
2019-04-26T14:45:22.446Z,0.80
2019-04-26T14:46:16.340Z,0.80
2019-04-26T14:47:19.959Z,0.95
2019-04-26T14:48:35.388Z,0.65
2019-04-26T14:49:38.559Z,0.85
2019-04-26T14:50:33.876Z,1.00
2019-04-26T14:51:37.390Z,0.60
2019-04-26T14:52:40.890Z,0.88
2019-04-26T14:53:44.402Z,1.00
2019-04-26T14:54:47.833Z,0.75
2019-04-26T14:55:54.583Z,0.60
2019-04-26T14:56:59.747Z,0.55
2019-04-26T14:58:02.030Z,1.05
2019-04-26T14:59:08.359Z,0.70
2019-04-26T15:00:12.758Z,0.80
2019-04-26T15:01:32.255Z,0.93
2019-04-26T15:02:41.609Z,0.60
2019-04-26T15:03:45.853Z,0.70
2019-04-26T15:04:53.894Z,0.70
2019-04-26T15:06:04.997Z,0.90
2019-04-26T15:07:08.426Z,0.95
2019-04-26T15:08:13.334Z,1.10
2019-04-26T15:09:20.113Z,0.78
2019-04-26T15:10:23.825Z,0.88
2019-04-26T15:11:27.274Z,1.00
2019-04-26T15:12:32.136Z,0.93
2019-04-26T15:13:40.306Z,0.85
2019-04-26T15:14:42.240Z,0.80
2019-04-26T15:15:46.296Z,0.60
2019-04-26T15:16:49.894Z,0.60
2019-04-26T15:17:59.290Z,0.90
2019-04-26T15:18:58.485Z,0.88
2019-04-26T15:20:03.380Z,0.80
2019-04-26T15:21:06.884Z,0.70
2019-04-26T15:22:12.101Z,0.80
2019-04-26T15:23:19.331Z,0.70
2019-04-26T15:24:22.566Z,0.80
2019-04-26T15:25:26.136Z,0.90
2019-04-26T15:26:30.223Z,0.82
2019-04-26T15:27:36.234Z,0.70
2019-04-26T15:28:38.924Z,0.72
2019-04-26T15:29:42.428Z,0.70
2019-04-26T15:30:46.762Z,0.80
2019-04-26T15:31:53.629Z,0.88
2019-04-26T15:32:55.914Z,0.70
2019-04-26T15:33:59.428Z,0.80
2019-04-26T15:35:02.933Z,0.70
2019-04-26T15:36:10.638Z,0.80